createdAt,value
2022-10-11T00:00:11.923Z,99.90
2022-10-11T00:05:06.486Z,99.90
2022-10-11T00:07:33.829Z,99.90
2022-10-11T00:10:00.736Z,99.90
2022-10-11T00:12:27.597Z,99.90
2022-10-11T00:14:54.856Z,99.90
2022-10-11T00:17:21.729Z,99.90
2022-10-11T00:19:48.597Z,99.90
2022-10-11T00:22:15.970Z,99.90
2022-10-11T00:27:10.222Z,99.90
2022-10-11T00:29:38.380Z,99.90
2022-10-11T00:32:05.797Z,99.90
2022-10-11T00:34:32.675Z,99.90
2022-10-11T00:36:59.557Z,99.90
2022-10-11T00:41:55.626Z,99.90
2022-10-11T00:44:27.592Z,99.90
2022-10-11T00:46:56.006Z,99.90
2022-10-11T00:49:28.967Z,99.90
2022-10-11T00:52:01.913Z,99.90
2022-10-11T00:54:33.548Z,99.90
2022-10-11T00:57:05.606Z,99.90
2022-10-11T00:59:43.204Z,99.90
2022-10-11T01:02:12.859Z,99.90
2022-10-11T01:04:40.908Z,99.90
2022-10-11T01:07:09.146Z,99.90
2022-10-11T01:09:36.463Z,99.90
2022-10-11T01:12:11.925Z,99.90
2022-10-11T01:15:10.849Z,99.90
2022-10-11T01:18:06.112Z,99.90
2022-10-11T01:20:41.724Z,99.90
2022-10-11T01:23:39.083Z,99.90
2022-10-11T01:26:30.271Z,99.90
2022-10-11T01:29:27.629Z,99.90
2022-10-11T01:32:02.134Z,99.90
2022-10-11T01:34:40.333Z,99.90
2022-10-11T01:37:36.500Z,99.90
2022-10-11T01:40:26.073Z,99.90
2022-10-11T01:42:55.051Z,99.90
2022-10-11T01:45:22.338Z,99.90
2022-10-11T01:48:05.434Z,99.90
2022-10-11T01:50:35.064Z,99.90
2022-10-11T01:53:26.480Z,99.90
2022-10-11T01:56:04.390Z,99.90
2022-10-11T01:58:49.857Z,99.90
2022-10-11T02:01:41.257Z,99.90
2022-10-11T02:04:26.248Z,99.90
2022-10-11T02:07:24.541Z,99.90
2022-10-11T02:10:18.562Z,99.90
2022-10-11T02:12:53.634Z,99.90
2022-10-11T02:15:22.887Z,99.90
2022-10-11T02:17:55.418Z,99.90
2022-10-11T02:20:25.173Z,99.90
2022-10-11T02:22:58.420Z,99.90
2022-10-11T02:25:26.672Z,99.90
2022-10-11T02:27:58.078Z,99.90
2022-10-11T02:32:54.509Z,99.90
2022-10-11T02:35:25.300Z,99.90
2022-10-11T02:38:02.488Z,99.90
2022-10-11T02:40:44.583Z,99.90
2022-10-11T02:43:19.515Z,99.90
2022-10-11T02:45:53.608Z,99.90
2022-10-11T02:50:47.803Z,99.90
2022-10-11T02:53:14.677Z,99.90
2022-10-11T02:55:41.570Z,99.90
2022-10-11T02:58:08.421Z,99.90
2022-10-11T03:00:35.254Z,99.90
2022-10-11T03:05:29.469Z,99.90
2022-10-11T03:10:23.572Z,99.90
2022-10-11T03:12:50.659Z,99.90
2022-10-11T03:15:17.511Z,99.90
2022-10-11T03:17:44.403Z,99.90
2022-10-11T03:25:06.384Z,99.90
2022-10-11T03:27:34.073Z,99.90
2022-10-11T03:30:01.211Z,99.90
2022-10-11T03:32:28.755Z,99.90
2022-10-11T03:34:55.742Z,99.90
2022-10-11T03:37:22.679Z,99.90
2022-10-11T03:39:49.561Z,99.90
2022-10-11T03:42:16.942Z,99.90
2022-10-11T03:47:11.481Z,99.90
2022-10-11T03:49:43.241Z,99.90
2022-10-11T03:52:11.310Z,99.90
2022-10-11T03:54:38.166Z,99.90
2022-10-11T03:57:05.228Z,99.90
2022-10-11T03:59:32.118Z,99.90
2022-10-11T04:01:59.371Z,99.90
2022-10-11T04:04:26.395Z,99.90
2022-10-11T04:06:53.747Z,99.90
2022-10-11T04:09:20.604Z,99.90
2022-10-11T04:11:47.471Z,99.90
2022-10-11T04:14:16.824Z,99.90
2022-10-11T04:16:43.676Z,99.90
2022-10-11T04:19:10.546Z,99.90
2022-10-11T04:26:32.117Z,99.90
2022-10-11T04:28:59.134Z,99.90
2022-10-11T04:33:53.392Z,99.90
2022-10-11T04:36:20.498Z,99.90
2022-10-11T04:38:47.364Z,99.90
2022-10-11T04:41:15.831Z,99.90
2022-10-11T04:43:43.214Z,99.90
2022-10-11T04:46:10.703Z,99.90
2022-10-11T04:48:38.370Z,99.90
2022-10-11T04:51:05.633Z,99.90
2022-10-11T04:56:06.902Z,99.90
2022-10-11T04:58:35.340Z,99.90
2022-10-11T05:01:02.213Z,99.90
2022-10-11T05:03:29.324Z,99.90
2022-10-11T05:11:04.526Z,99.90
2022-10-11T05:13:32.198Z,99.90
2022-10-11T05:18:26.919Z,99.90
2022-10-11T05:21:30.419Z,99.90
2022-10-11T05:23:57.941Z,99.90
2022-10-11T05:26:27.275Z,99.90
2022-10-11T05:28:54.917Z,99.90
2022-10-11T05:31:22.300Z,99.90
2022-10-11T05:33:49.230Z,99.90
2022-10-11T05:38:44.173Z,99.90
2022-10-11T05:41:14.027Z,99.90
2022-10-11T05:43:41.407Z,99.90
2022-10-11T05:46:08.959Z,99.90
2022-10-11T05:48:36.172Z,99.90
2022-10-11T05:51:05.720Z,99.90
2022-10-11T05:53:33.373Z,99.90
2022-10-11T05:56:00.590Z,99.90
2022-10-11T05:58:27.806Z,99.90
2022-10-11T06:03:24.164Z,99.90
2022-10-11T06:05:55.807Z,99.90
2022-10-11T06:10:50.988Z,99.90
2022-10-11T06:15:45.440Z,99.90
2022-10-11T06:18:12.289Z,99.90
2022-10-11T06:23:06.421Z,99.90
2022-10-11T06:25:33.291Z,99.90
2022-10-11T06:28:00.173Z,99.90
2022-10-11T06:30:27.227Z,99.90
2022-10-11T06:32:54.140Z,99.90
2022-10-11T06:35:21.029Z,99.90
2022-10-11T06:37:47.929Z,99.90
2022-10-11T06:45:09.682Z,99.90
2022-10-11T06:47:36.532Z,99.90
2022-10-11T06:50:03.941Z,99.90
2022-10-11T06:54:58.041Z,99.90
2022-10-11T06:57:25.351Z,99.90
2022-10-11T06:59:52.828Z,99.90
2022-10-11T07:04:46.972Z,99.90
2022-10-11T07:07:15.002Z,99.90
2022-10-11T07:12:09.606Z,99.90
2022-10-11T07:14:36.595Z,99.90
2022-10-11T07:17:03.720Z,99.90
2022-10-11T07:21:57.891Z,99.90
2022-10-11T07:24:24.803Z,99.90
2022-10-11T07:26:51.793Z,99.90
2022-10-11T07:29:18.955Z,99.90
2022-10-11T07:31:45.846Z,99.90
2022-10-11T07:34:12.942Z,99.90
2022-10-11T07:36:39.994Z,99.90
2022-10-11T07:39:08.806Z,99.90
2022-10-11T07:41:38.846Z,99.90
2022-10-11T07:49:02.475Z,99.90
2022-10-11T07:51:29.469Z,99.90
2022-10-11T07:53:57.526Z,99.90
2022-10-11T07:56:28.479Z,99.90
2022-10-11T07:59:00.859Z,99.90
2022-10-11T08:01:28.671Z,99.90
2022-10-11T08:03:59.398Z,99.90
2022-10-11T08:06:32.081Z,99.90
2022-10-11T08:09:00.727Z,99.90
2022-10-11T08:11:33.881Z,99.90
2022-10-11T08:14:01.206Z,99.90
2022-10-11T08:16:28.038Z,99.90
2022-10-11T08:18:57.351Z,99.90
2022-10-11T08:31:16.068Z,99.90
2022-10-11T08:33:43.741Z,99.90
2022-10-11T08:36:11.093Z,99.90
2022-10-11T08:41:43.375Z,99.90
2022-10-11T08:44:58.724Z,99.90
2022-10-11T08:47:33.310Z,99.90
2022-10-11T08:50:00.719Z,99.90
2022-10-11T08:52:50.942Z,99.90
2022-10-11T08:55:45.110Z,99.90
2022-10-11T08:58:17.452Z,99.90
2022-10-11T09:00:48.212Z,99.90
2022-10-11T09:03:22.019Z,99.90
2022-10-11T09:06:08.979Z,99.90
2022-10-11T09:08:55.435Z,99.90
2022-10-11T09:11:56.099Z,99.90
2022-10-11T09:14:53.644Z,99.90
2022-10-11T09:17:24.887Z,99.90
2022-10-11T09:20:24.939Z,99.90
2022-10-11T09:22:55.147Z,99.90
2022-10-11T09:25:57.139Z,99.90
2022-10-11T09:28:29.292Z,99.90
2022-10-11T09:30:58.028Z,99.90
2022-10-11T09:33:38.837Z,99.90
2022-10-11T09:36:22.519Z,99.90
2022-10-11T09:39:07.752Z,99.90
2022-10-11T09:41:45.835Z,99.90
2022-10-11T09:44:23.155Z,99.90
2022-10-11T09:46:50.966Z,99.90
2022-10-11T09:49:21.689Z,99.90
2022-10-11T09:51:57.544Z,99.90
2022-10-11T09:54:52.028Z,99.90
2022-10-11T09:57:25.922Z,99.90
2022-10-11T10:00:08.609Z,99.90
2022-10-11T10:02:49.057Z,99.90
2022-10-11T10:05:27.736Z,99.10
2022-10-11T10:08:09.003Z,99.70
2022-10-11T10:10:59.610Z,98.30
2022-10-11T10:13:46.804Z,99.00
2022-10-11T10:16:29.574Z,99.60
2022-10-11T10:19:04.505Z,99.60
2022-10-11T10:21:36.033Z,98.40
2022-10-11T10:24:09.403Z,97.60
2022-10-11T10:29:10.049Z,96.50
2022-10-11T10:35:16.339Z,93.80
2022-10-11T10:37:53.609Z,93.20
2022-10-11T10:40:52.642Z,91.20
2022-10-11T10:43:28.917Z,91.30
2022-10-11T10:46:11.648Z,90.40
2022-10-11T10:49:34.514Z,88.90
2022-10-11T10:52:13.188Z,88.50
2022-10-11T10:54:42.712Z,90.40
2022-10-11T10:57:25.246Z,88.30
2022-10-11T11:00:16.031Z,84.90
2022-10-11T11:03:06.905Z,85.80
2022-10-11T11:05:45.461Z,85.30
2022-10-11T11:08:39.102Z,83.50
2022-10-11T11:11:44.730Z,84.30
2022-10-11T11:14:40.526Z,84.90
2022-10-11T11:17:35.157Z,81.30
2022-10-11T11:20:55.304Z,78.90
2022-10-11T11:23:32.894Z,80.70
2022-10-11T11:26:05.382Z,83.20
2022-10-11T11:28:45.844Z,84.20
2022-10-11T11:31:45.839Z,82.70
2022-10-11T11:34:21.800Z,82.50
2022-10-11T11:36:57.514Z,81.20
2022-10-11T11:39:46.198Z,78.10
2022-10-11T11:42:21.202Z,78.10
2022-10-11T11:44:50.303Z,79.60
2022-10-11T11:47:18.048Z,82.30
2022-10-11T11:50:22.607Z,80.90
2022-10-11T11:52:56.508Z,84.00
2022-10-11T11:55:42.098Z,86.20
2022-10-11T11:58:23.500Z,89.60
2022-10-11T12:01:21.459Z,90.50
2022-10-11T12:03:55.920Z,91.20
2022-10-11T12:06:47.672Z,91.60
2022-10-11T12:12:02.041Z,92.30
2022-10-11T12:14:34.281Z,93.20
2022-10-11T12:17:09.941Z,92.80
2022-10-11T12:19:38.535Z,93.40
2022-10-11T12:22:50.344Z,94.00
2022-10-11T12:25:22.577Z,94.10
2022-10-11T12:27:53.421Z,94.10
2022-10-11T12:30:44.703Z,94.40
2022-10-11T12:33:33.062Z,94.60
2022-10-11T12:36:21.832Z,95.00
2022-10-11T12:39:20.507Z,95.50
2022-10-11T12:41:50.358Z,96.00
2022-10-11T12:44:24.009Z,96.60
2022-10-11T12:46:50.791Z,97.20
2022-10-11T12:49:43.740Z,97.80
2022-10-11T12:52:44.270Z,98.60
2022-10-11T12:55:56.605Z,98.60
2022-10-11T12:58:30.494Z,98.70
2022-10-11T13:03:47.390Z,98.40
2022-10-11T13:06:35.401Z,98.20
2022-10-11T13:09:15.710Z,98.30
2022-10-11T13:12:07.127Z,97.60
2022-10-11T13:14:42.463Z,97.10
2022-10-11T13:17:38.262Z,97.10
2022-10-11T13:20:20.438Z,96.70
2022-10-11T13:22:51.037Z,95.40
2022-10-11T13:25:24.443Z,94.80
2022-10-11T13:27:53.761Z,95.50
2022-10-11T13:30:45.401Z,95.20
2022-10-11T13:33:20.562Z,94.10
2022-10-11T13:35:48.290Z,92.50
2022-10-11T13:38:23.027Z,92.70
2022-10-11T13:40:51.259Z,92.00
2022-10-11T13:43:23.486Z,91.30
2022-10-11T13:48:17.895Z,90.60
2022-10-11T13:50:52.325Z,90.00
2022-10-11T13:53:19.171Z,89.50
2022-10-11T13:55:56.770Z,89.60
2022-10-11T13:58:28.454Z,88.60
2022-10-11T14:00:57.805Z,89.10
2022-10-11T14:03:39.217Z,89.20
2022-10-11T14:06:07.147Z,88.00
2022-10-11T14:08:37.719Z,89.00
2022-10-11T14:11:06.926Z,88.30
2022-10-11T14:13:45.977Z,87.60
2022-10-11T14:16:18.748Z,87.80
2022-10-11T14:21:34.758Z,89.50
2022-10-11T14:24:01.677Z,88.80
2022-10-11T14:26:36.717Z,89.30
2022-10-11T14:29:12.301Z,89.40
2022-10-11T14:31:42.102Z,88.70
2022-10-11T14:34:30.913Z,88.40
2022-10-11T14:36:57.906Z,89.40
2022-10-11T14:39:27.798Z,88.40
2022-10-11T14:44:23.183Z,87.60
2022-10-11T14:46:54.367Z,88.50
2022-10-11T14:49:27.649Z,87.40
2022-10-11T14:51:56.781Z,87.40
2022-10-11T14:54:25.191Z,87.40
2022-10-11T14:56:54.223Z,86.80
2022-10-11T14:59:24.421Z,88.10
2022-10-11T15:01:53.683Z,88.50
2022-10-11T15:04:25.778Z,88.50
2022-10-11T15:06:54.373Z,89.20
2022-10-11T15:09:22.118Z,89.60
2022-10-11T15:11:50.915Z,89.80
2022-10-11T15:14:18.363Z,90.60
2022-10-11T15:16:45.645Z,90.70
2022-10-11T15:19:22.169Z,91.30
2022-10-11T15:24:20.042Z,91.00
2022-10-11T15:26:48.466Z,91.40
2022-10-11T15:29:18.146Z,92.20
2022-10-11T15:31:46.443Z,92.30
2022-10-11T15:36:40.884Z,93.10
2022-10-11T15:39:37.388Z,93.10
2022-10-11T15:42:04.477Z,93.70
2022-10-11T15:51:53.142Z,94.40
2022-10-11T15:59:14.663Z,94.70
2022-10-11T16:01:41.647Z,95.20
2022-10-11T16:06:35.847Z,95.50
2022-10-11T16:11:30.150Z,96.00
2022-10-11T16:13:57.109Z,96.50
2022-10-11T16:16:24.249Z,96.70
2022-10-11T16:18:51.485Z,97.20
2022-10-11T16:21:18.411Z,97.20
2022-10-11T16:23:45.262Z,97.70
2022-10-11T16:26:14.858Z,97.80
2022-10-11T16:31:18.226Z,98.20
2022-10-11T16:33:48.172Z,98.90
2022-10-11T16:36:35.147Z,98.70
2022-10-11T16:39:06.259Z,98.70
2022-10-11T16:41:33.141Z,99.40
2022-10-11T16:46:27.652Z,99.20
2022-10-11T16:48:57.947Z,99.60
2022-10-11T16:53:53.186Z,99.90
2022-10-11T16:58:49.601Z,99.90
2022-10-11T17:06:11.051Z,99.90
2022-10-11T17:08:38.083Z,99.90
2022-10-11T17:16:00.770Z,99.90
2022-10-11T17:18:27.742Z,99.90
2022-10-11T17:21:12.410Z,99.90
2022-10-11T17:23:39.736Z,99.90
2022-10-11T17:26:11.359Z,99.90
2022-10-11T17:28:39.137Z,99.90
2022-10-11T17:31:07.594Z,99.90
2022-10-11T17:41:02.584Z,99.90
2022-10-11T17:45:58.556Z,99.90
2022-10-11T17:48:27.712Z,99.90
2022-10-11T17:53:21.993Z,99.90
2022-10-11T17:58:18.741Z,99.90
2022-10-11T18:00:45.652Z,99.90
2022-10-11T18:03:12.605Z,99.90
2022-10-11T18:05:41.074Z,99.90
2022-10-11T18:08:08.577Z,99.90
2022-10-11T18:10:37.012Z,99.90
2022-10-11T18:13:06.789Z,99.90
2022-10-11T18:15:34.090Z,99.90
2022-10-11T18:18:01.030Z,99.90
2022-10-11T18:20:27.913Z,99.90
2022-10-11T18:22:54.813Z,99.90
2022-10-11T18:25:21.864Z,99.90
2022-10-11T18:27:48.907Z,99.90
2022-10-11T18:32:44.048Z,99.90
2022-10-11T18:35:11.413Z,99.90
2022-10-11T18:37:38.282Z,99.90
2022-10-11T18:40:05.763Z,99.90
2022-10-11T18:47:27.724Z,99.90
2022-10-11T18:52:21.878Z,99.90
2022-10-11T18:57:16.304Z,99.90
2022-10-11T18:59:43.222Z,99.90
2022-10-11T19:02:12.045Z,99.90
2022-10-11T19:04:39.750Z,99.90
2022-10-11T19:09:33.873Z,99.90
2022-10-11T19:14:30.328Z,99.90
2022-10-11T19:16:57.697Z,99.90
2022-10-11T19:19:27.822Z,99.90
2022-10-11T19:24:24.396Z,99.90
2022-10-11T19:26:53.184Z,99.90
2022-10-11T19:29:22.743Z,99.90
2022-10-11T19:32:01.487Z,99.90
2022-10-11T19:34:30.051Z,99.90
2022-10-11T19:36:57.798Z,99.90
2022-10-11T19:39:25.576Z,99.90
2022-10-11T19:41:52.714Z,99.90
2022-10-11T19:44:19.756Z,99.90
2022-10-11T19:46:53.882Z,99.90
2022-10-11T19:49:25.869Z,99.90
2022-10-11T19:51:53.696Z,99.90
2022-10-11T19:56:48.555Z,99.90
2022-10-11T19:59:16.145Z,99.90
2022-10-11T20:01:46.667Z,99.90
2022-10-11T20:04:33.185Z,99.90
2022-10-11T20:07:01.989Z,99.90
2022-10-11T20:09:30.381Z,99.90
2022-10-11T20:11:57.970Z,99.90
2022-10-11T20:14:25.037Z,99.90
2022-10-11T20:16:52.142Z,99.90
2022-10-11T20:21:47.443Z,99.90
2022-10-11T20:24:14.361Z,99.90
2022-10-11T20:29:08.546Z,99.90
2022-10-11T20:31:40.844Z,99.90
2022-10-11T20:36:36.373Z,99.90
2022-10-11T20:39:04.864Z,99.90
2022-10-11T20:41:34.721Z,99.90
2022-10-11T20:44:03.150Z,99.90
2022-10-11T20:46:35.213Z,99.90
2022-10-11T20:49:08.486Z,99.90
2022-10-11T20:51:37.272Z,99.90
2022-10-11T20:54:04.877Z,99.90
2022-10-11T20:56:32.448Z,99.90
2022-10-11T20:58:59.758Z,99.90
2022-10-11T21:01:40.703Z,99.90
2022-10-11T21:04:14.529Z,99.90
2022-10-11T21:06:41.358Z,99.90
2022-10-11T21:11:39.653Z,99.90
2022-10-11T21:14:06.578Z,99.90
2022-10-11T21:16:34.347Z,99.90
2022-10-11T21:19:02.204Z,99.90
2022-10-11T21:21:30.297Z,99.90
2022-10-11T21:23:59.674Z,99.90
2022-10-11T21:26:27.463Z,99.90
2022-10-11T21:28:54.558Z,99.90
2022-10-11T21:31:23.061Z,99.90
2022-10-11T21:33:50.309Z,99.90
2022-10-11T21:36:19.990Z,99.90
2022-10-11T21:38:48.105Z,99.90
2022-10-11T21:41:17.571Z,99.90
2022-10-11T21:43:44.641Z,99.90
2022-10-11T21:46:41.620Z,99.90
2022-10-11T21:49:13.479Z,99.90
2022-10-11T21:51:40.339Z,99.90
2022-10-11T21:54:07.354Z,99.90
2022-10-11T21:59:01.671Z,99.90
2022-10-11T22:03:56.138Z,99.90
2022-10-11T22:06:24.071Z,99.90
2022-10-11T22:08:51.446Z,99.90
2022-10-11T22:11:18.659Z,99.90
2022-10-11T22:13:45.926Z,99.90
2022-10-11T22:16:14.136Z,99.90
2022-10-11T22:18:41.915Z,99.90
2022-10-11T22:21:16.208Z,99.90
2022-10-11T22:23:45.528Z,99.90
2022-10-11T22:26:18.156Z,99.90
2022-10-11T22:28:46.693Z,99.90
2022-10-11T22:31:14.745Z,99.90
2022-10-11T22:33:42.227Z,99.90
2022-10-11T22:36:12.149Z,99.90
2022-10-11T22:38:41.209Z,99.90
2022-10-11T22:41:08.139Z,99.90
2022-10-11T22:46:02.494Z,99.90
2022-10-11T22:48:29.366Z,99.90
2022-10-11T22:50:56.245Z,99.90
2022-10-11T22:55:51.084Z,99.90
2022-10-11T22:58:18.039Z,99.90
2022-10-11T23:00:44.926Z,99.90
2022-10-11T23:03:16.895Z,99.90
2022-10-11T23:05:43.788Z,99.90
2022-10-11T23:08:10.715Z,99.90
2022-10-11T23:10:41.073Z,99.90
2022-10-11T23:13:07.988Z,99.90
2022-10-11T23:15:35.008Z,99.90
2022-10-11T23:18:02.066Z,99.90
2022-10-11T23:20:28.918Z,99.90
2022-10-11T23:22:55.770Z,99.90
2022-10-11T23:25:22.650Z,99.90
2022-10-11T23:32:44.078Z,99.90
2022-10-11T23:35:10.941Z,99.90
2022-10-11T23:37:38.126Z,99.90
2022-10-11T23:40:05.819Z,99.90
2022-10-11T23:42:32.663Z,99.90
2022-10-11T23:44:59.515Z,99.90
2022-10-11T23:47:26.423Z,99.90
2022-10-11T23:49:53.259Z,99.90
2022-10-11T23:52:20.121Z,99.90
2022-10-11T23:54:47.017Z,99.90
2022-10-11T23:57:13.894Z,99.90
